sensor_id;sensor_type;location;lat;lon;timestamp;temperature;humidity
3418;DHT22;68007;51.312;12.372;2024-01-16T00:01:41;2.00;96.60
3418;DHT22;68007;51.312;12.372;2024-01-16T00:04:25;2.00;96.70
3418;DHT22;68007;51.312;12.372;2024-01-16T00:06:56;2.00;96.40
3418;DHT22;68007;51.312;12.372;2024-01-16T00:09:23;2.00;96.30
3418;DHT22;68007;51.312;12.372;2024-01-16T00:11:51;2.10;96.60
3418;DHT22;68007;51.312;12.372;2024-01-16T00:14:18;2.10;96.60
3418;DHT22;68007;51.312;12.372;2024-01-16T00:16:46;2.10;96.50
3418;DHT22;68007;51.312;12.372;2024-01-16T00:19:15;2.10;96.30
3418;DHT22;68007;51.312;12.372;2024-01-16T00:21:45;2.10;96.30
3418;DHT22;68007;51.312;12.372;2024-01-16T00:24:13;2.10;96.30
3418;DHT22;68007;51.312;12.372;2024-01-16T00:26:41;2.10;96.40
3418;DHT22;68007;51.312;12.372;2024-01-16T00:29:08;2.20;96.30
3418;DHT22;68007;51.312;12.372;2024-01-16T00:31:38;2.20;96.30
3418;DHT22;68007;51.312;12.372;2024-01-16T00:34:04;2.20;96.30
3418;DHT22;68007;51.312;12.372;2024-01-16T00:36:32;2.20;96.20
3418;DHT22;68007;51.312;12.372;2024-01-16T00:39:01;2.30;96.10
3418;DHT22;68007;51.312;12.372;2024-01-16T00:41:29;2.20;95.90
3418;DHT22;68007;51.312;12.372;2024-01-16T00:43:56;2.20;96.10
3418;DHT22;68007;51.312;12.372;2024-01-16T00:46:24;2.30;96.00
3418;DHT22;68007;51.312;12.372;2024-01-16T00:48:51;2.30;95.90
3418;DHT22;68007;51.312;12.372;2024-01-16T00:51:19;2.30;95.90
3418;DHT22;68007;51.312;12.372;2024-01-16T00:53:47;2.30;95.90
3418;DHT22;68007;51.312;12.372;2024-01-16T00:56:15;2.30;95.80
3418;DHT22;68007;51.312;12.372;2024-01-16T00:58:43;2.30;95.80
3418;DHT22;68007;51.312;12.372;2024-01-16T01:01:10;2.30;95.90
3418;DHT22;68007;51.312;12.372;2024-01-16T01:03:53;2.30;95.70
3418;DHT22;68007;51.312;12.372;2024-01-16T01:06:35;2.20;95.70
3418;DHT22;68007;51.312;12.372;2024-01-16T01:09:03;2.20;95.90
3418;DHT22;68007;51.312;12.372;2024-01-16T01:11:32;2.20;95.70
3418;DHT22;68007;51.312;12.372;2024-01-16T01:13:59;2.20;95.70
3418;DHT22;68007;51.312;12.372;2024-01-16T01:16:27;2.20;95.70
3418;DHT22;68007;51.312;12.372;2024-01-16T01:18:54;2.10;95.80
3418;DHT22;68007;51.312;12.372;2024-01-16T01:21:22;2.10;95.70
3418;DHT22;68007;51.312;12.372;2024-01-16T01:23:49;2.10;95.70
3418;DHT22;68007;51.312;12.372;2024-01-16T01:26:17;2.10;95.70
3418;DHT22;68007;51.312;12.372;2024-01-16T01:28:46;2.10;95.50
3418;DHT22;68007;51.312;12.372;2024-01-16T01:31:14;2.10;95.70
3418;DHT22;68007;51.312;12.372;2024-01-16T01:33:42;2.20;95.60
3418;DHT22;68007;51.312;12.372;2024-01-16T01:36:09;2.20;95.40
3418;DHT22;68007;51.312;12.372;2024-01-16T01:38:37;2.20;95.30
3418;DHT22;68007;51.312;12.372;2024-01-16T01:41:04;2.20;95.20
3418;DHT22;68007;51.312;12.372;2024-01-16T01:43:32;2.20;95.00
3418;DHT22;68007;51.312;12.372;2024-01-16T01:46:09;2.10;94.90
3418;DHT22;68007;51.312;12.372;2024-01-16T01:48:38;2.10;95.10
3418;DHT22;68007;51.312;12.372;2024-01-16T01:51:06;2.10;95.00
3418;DHT22;68007;51.312;12.372;2024-01-16T01:53:35;2.20;95.00
3418;DHT22;68007;51.312;12.372;2024-01-16T01:56:05;2.20;95.00
3418;DHT22;68007;51.312;12.372;2024-01-16T01:58:34;2.20;95.00
3418;DHT22;68007;51.312;12.372;2024-01-16T02:01:06;2.20;94.80
3418;DHT22;68007;51.312;12.372;2024-01-16T02:03:39;2.20;94.80
3418;DHT22;68007;51.312;12.372;2024-01-16T02:06:07;2.20;94.70
3418;DHT22;68007;51.312;12.372;2024-01-16T02:08:35;2.20;95.00
3418;DHT22;68007;51.312;12.372;2024-01-16T02:11:03;2.20;95.00
3418;DHT22;68007;51.312;12.372;2024-01-16T02:13:30;2.20;95.00
3418;DHT22;68007;51.312;12.372;2024-01-16T02:15:58;2.20;94.90
3418;DHT22;68007;51.312;12.372;2024-01-16T02:18:27;2.20;95.00
3418;DHT22;68007;51.312;12.372;2024-01-16T02:20:59;2.10;95.00
3418;DHT22;68007;51.312;12.372;2024-01-16T02:23:29;2.20;95.20
3418;DHT22;68007;51.312;12.372;2024-01-16T02:25:57;2.20;95.30
3418;DHT22;68007;51.312;12.372;2024-01-16T02:28:25;2.30;95.00
3418;DHT22;68007;51.312;12.372;2024-01-16T02:30:52;2.30;95.10
3418;DHT22;68007;51.312;12.372;2024-01-16T02:33:20;2.30;95.00
3418;DHT22;68007;51.312;12.372;2024-01-16T02:35:47;2.30;94.90
3418;DHT22;68007;51.312;12.372;2024-01-16T02:38:15;2.40;95.00
3418;DHT22;68007;51.312;12.372;2024-01-16T02:40:44;2.30;94.90
3418;DHT22;68007;51.312;12.372;2024-01-16T02:43:11;2.30;94.70
3418;DHT22;68007;51.312;12.372;2024-01-16T02:45:39;2.30;94.70
3418;DHT22;68007;51.312;12.372;2024-01-16T02:48:06;2.30;95.10
3418;DHT22;68007;51.312;12.372;2024-01-16T02:50:34;2.30;95.00
3418;DHT22;68007;51.312;12.372;2024-01-16T02:53:01;2.40;94.90
3418;DHT22;68007;51.312;12.372;2024-01-16T02:55:29;2.30;94.90
3418;DHT22;68007;51.312;12.372;2024-01-16T02:57:58;2.30;94.70
3418;DHT22;68007;51.312;12.372;2024-01-16T03:00:25;2.30;94.70
3418;DHT22;68007;51.312;12.372;2024-01-16T03:02:53;2.30;94.90
3418;DHT22;68007;51.312;12.372;2024-01-16T03:05:20;2.30;94.70
3418;DHT22;68007;51.312;12.372;2024-01-16T03:07:48;2.40;94.90
3418;DHT22;68007;51.312;12.372;2024-01-16T03:10:15;2.50;94.30
3418;DHT22;68007;51.312;12.372;2024-01-16T03:12:43;2.40;94.20
3418;DHT22;68007;51.312;12.372;2024-01-16T03:15:12;2.30;94.20
3418;DHT22;68007;51.312;12.372;2024-01-16T03:17:39;2.30;94.50
3418;DHT22;68007;51.312;12.372;2024-01-16T03:20:07;2.40;94.40
3418;DHT22;68007;51.312;12.372;2024-01-16T03:22:35;2.40;94.30
3418;DHT22;68007;51.312;12.372;2024-01-16T03:25:03;2.40;94.50
3418;DHT22;68007;51.312;12.372;2024-01-16T03:27:31;2.40;94.40
3418;DHT22;68007;51.312;12.372;2024-01-16T03:29:58;2.40;94.10
3418;DHT22;68007;51.312;12.372;2024-01-16T03:32:27;2.30;94.20
3418;DHT22;68007;51.312;12.372;2024-01-16T03:34:55;2.30;94.00
3418;DHT22;68007;51.312;12.372;2024-01-16T03:37:23;2.20;94.10
3418;DHT22;68007;51.312;12.372;2024-01-16T03:39:50;2.10;94.30
3418;DHT22;68007;51.312;12.372;2024-01-16T03:42:18;2.10;94.40
3418;DHT22;68007;51.312;12.372;2024-01-16T03:44:45;2.10;94.50
3418;DHT22;68007;51.312;12.372;2024-01-16T03:47:13;2.10;94.60
3418;DHT22;68007;51.312;12.372;2024-01-16T03:49:42;2.10;94.40
3418;DHT22;68007;51.312;12.372;2024-01-16T03:52:09;2.10;94.40
3418;DHT22;68007;51.312;12.372;2024-01-16T03:54:37;2.20;94.50
3418;DHT22;68007;51.312;12.372;2024-01-16T03:57:04;2.10;94.30
3418;DHT22;68007;51.312;12.372;2024-01-16T03:59:32;2.10;94.40
3418;DHT22;68007;51.312;12.372;2024-01-16T04:02:00;2.10;94.30
3418;DHT22;68007;51.312;12.372;2024-01-16T04:04:29;2.00;94.40
3418;DHT22;68007;51.312;12.372;2024-01-16T04:06:58;2.00;94.40
3418;DHT22;68007;51.312;12.372;2024-01-16T04:09:25;2.00;94.50
3418;DHT22;68007;51.312;12.372;2024-01-16T04:11:53;2.00;94.20
3418;DHT22;68007;51.312;12.372;2024-01-16T04:14:20;1.90;94.30
3418;DHT22;68007;51.312;12.372;2024-01-16T04:16:48;1.90;94.40
3418;DHT22;68007;51.312;12.372;2024-01-16T04:19:16;1.80;94.50
3418;DHT22;68007;51.312;12.372;2024-01-16T04:21:43;1.90;94.50
3418;DHT22;68007;51.312;12.372;2024-01-16T04:24:12;1.90;94.40
3418;DHT22;68007;51.312;12.372;2024-01-16T04:26:40;1.90;94.60
3418;DHT22;68007;51.312;12.372;2024-01-16T04:29:07;1.90;94.60
3418;DHT22;68007;51.312;12.372;2024-01-16T04:31:39;1.80;94.70
3418;DHT22;68007;51.312;12.372;2024-01-16T04:34:07;1.80;94.90
3418;DHT22;68007;51.312;12.372;2024-01-16T04:36:34;1.80;95.00
3418;DHT22;68007;51.312;12.372;2024-01-16T04:39:02;1.80;95.00
3418;DHT22;68007;51.312;12.372;2024-01-16T04:41:32;1.80;95.20
3418;DHT22;68007;51.312;12.372;2024-01-16T04:43:59;1.90;95.50
3418;DHT22;68007;51.312;12.372;2024-01-16T04:46:27;1.90;95.20
3418;DHT22;68007;51.312;12.372;2024-01-16T04:48:55;1.80;95.20
3418;DHT22;68007;51.312;12.372;2024-01-16T04:51:22;1.90;95.30
3418;DHT22;68007;51.312;12.372;2024-01-16T04:53:49;1.90;95.50
3418;DHT22;68007;51.312;12.372;2024-01-16T04:56:17;1.90;95.40
3418;DHT22;68007;51.312;12.372;2024-01-16T04:58:47;1.80;95.70
3418;DHT22;68007;51.312;12.372;2024-01-16T05:01:14;2.00;95.40
3418;DHT22;68007;51.312;12.372;2024-01-16T05:03:42;1.90;95.30
3418;DHT22;68007;51.312;12.372;2024-01-16T05:06:12;1.90;95.40
3418;DHT22;68007;51.312;12.372;2024-01-16T05:08:41;2.00;95.40
3418;DHT22;68007;51.312;12.372;2024-01-16T05:11:08;2.00;95.20
3418;DHT22;68007;51.312;12.372;2024-01-16T05:13:36;2.00;95.40
3418;DHT22;68007;51.312;12.372;2024-01-16T05:16:05;2.00;95.30
3418;DHT22;68007;51.312;12.372;2024-01-16T05:18:34;2.00;95.20
3418;DHT22;68007;51.312;12.372;2024-01-16T05:21:01;2.00;95.10
3418;DHT22;68007;51.312;12.372;2024-01-16T05:23:29;2.00;95.10
3418;DHT22;68007;51.312;12.372;2024-01-16T05:25:57;2.00;94.90
3418;DHT22;68007;51.312;12.372;2024-01-16T05:28:25;2.00;95.20
3418;DHT22;68007;51.312;12.372;2024-01-16T05:30:52;2.00;95.20
3418;DHT22;68007;51.312;12.372;2024-01-16T05:33:21;2.00;94.80
3418;DHT22;68007;51.312;12.372;2024-01-16T05:35:48;1.90;94.80
3418;DHT22;68007;51.312;12.372;2024-01-16T05:38:17;1.80;95.00
3418;DHT22;68007;51.312;12.372;2024-01-16T05:40:44;1.90;95.10
3418;DHT22;68007;51.312;12.372;2024-01-16T05:43:12;1.90;95.00
3418;DHT22;68007;51.312;12.372;2024-01-16T05:45:39;1.90;95.00
3418;DHT22;68007;51.312;12.372;2024-01-16T05:48:07;1.80;94.80
3418;DHT22;68007;51.312;12.372;2024-01-16T05:50:36;1.80;95.00
3418;DHT22;68007;51.312;12.372;2024-01-16T05:53:04;1.80;95.10
3418;DHT22;68007;51.312;12.372;2024-01-16T05:55:32;1.80;94.80
3418;DHT22;68007;51.312;12.372;2024-01-16T05:58:02;1.80;95.00
3418;DHT22;68007;51.312;12.372;2024-01-16T06:00:29;1.80;95.20
3418;DHT22;68007;51.312;12.372;2024-01-16T06:02:57;1.80;95.30
3418;DHT22;68007;51.312;12.372;2024-01-16T06:05:24;1.90;95.00
3418;DHT22;68007;51.312;12.372;2024-01-16T06:07:53;1.90;95.00
3418;DHT22;68007;51.312;12.372;2024-01-16T06:10:20;1.90;94.80
3418;DHT22;68007;51.312;12.372;2024-01-16T06:12:48;1.90;94.70
3418;DHT22;68007;51.312;12.372;2024-01-16T06:15:16;1.90;94.80
3418;DHT22;68007;51.312;12.372;2024-01-16T06:17:43;2.00;94.60
3418;DHT22;68007;51.312;12.372;2024-01-16T06:20:11;2.00;94.60
3418;DHT22;68007;51.312;12.372;2024-01-16T06:22:39;2.00;94.30
3418;DHT22;68007;51.312;12.372;2024-01-16T06:25:08;2.00;94.20
3418;DHT22;68007;51.312;12.372;2024-01-16T06:27:35;1.90;94.20
3418;DHT22;68007;51.312;12.372;2024-01-16T06:30:03;1.90;94.40
3418;DHT22;68007;51.312;12.372;2024-01-16T06:32:31;2.00;94.20
3418;DHT22;68007;51.312;12.372;2024-01-16T06:34:58;1.90;94.20
3418;DHT22;68007;51.312;12.372;2024-01-16T06:37:26;1.90;94.20
3418;DHT22;68007;51.312;12.372;2024-01-16T06:39:53;1.90;94.00
3418;DHT22;68007;51.312;12.372;2024-01-16T06:42:22;1.90;94.00
3418;DHT22;68007;51.312;12.372;2024-01-16T06:44:50;1.80;93.90
3418;DHT22;68007;51.312;12.372;2024-01-16T06:47:17;1.80;93.90
3418;DHT22;68007;51.312;12.372;2024-01-16T06:49:45;1.70;94.10
3418;DHT22;68007;51.312;12.372;2024-01-16T06:52:12;1.80;94.20
3418;DHT22;68007;51.312;12.372;2024-01-16T06:54:40;1.70;93.90
3418;DHT22;68007;51.312;12.372;2024-01-16T06:57:08;1.70;94.00
3418;DHT22;68007;51.312;12.372;2024-01-16T06:59:36;1.60;93.90
3418;DHT22;68007;51.312;12.372;2024-01-16T07:02:04;1.60;93.90
3418;DHT22;68007;51.312;12.372;2024-01-16T07:04:32;1.60;94.00
3418;DHT22;68007;51.312;12.372;2024-01-16T07:06:59;1.60;94.20
3418;DHT22;68007;51.312;12.372;2024-01-16T07:09:27;1.60;94.30
3418;DHT22;68007;51.312;12.372;2024-01-16T07:11:54;1.60;94.10
3418;DHT22;68007;51.312;12.372;2024-01-16T07:14:22;1.50;94.10
3418;DHT22;68007;51.312;12.372;2024-01-16T07:16:51;1.50;94.30
3418;DHT22;68007;51.312;12.372;2024-01-16T07:19:18;1.50;94.30
3418;DHT22;68007;51.312;12.372;2024-01-16T07:21:46;1.50;94.50
3418;DHT22;68007;51.312;12.372;2024-01-16T07:24:13;1.50;94.60
3418;DHT22;68007;51.312;12.372;2024-01-16T07:26:41;1.50;94.60
3418;DHT22;68007;51.312;12.372;2024-01-16T07:29:08;1.50;94.60
3418;DHT22;68007;51.312;12.372;2024-01-16T07:31:36;1.50;94.60
3418;DHT22;68007;51.312;12.372;2024-01-16T07:34:05;1.50;94.80
3418;DHT22;68007;51.312;12.372;2024-01-16T07:36:32;1.50;94.60
3418;DHT22;68007;51.312;12.372;2024-01-16T07:39:00;1.50;94.60
3418;DHT22;68007;51.312;12.372;2024-01-16T07:41:28;1.50;94.70
3418;DHT22;68007;51.312;12.372;2024-01-16T07:43:55;1.40;94.80
3418;DHT22;68007;51.312;12.372;2024-01-16T07:46:23;1.40;94.80
3418;DHT22;68007;51.312;12.372;2024-01-16T07:48:50;1.40;94.80
3418;DHT22;68007;51.312;12.372;2024-01-16T07:51:19;1.40;94.90
3418;DHT22;68007;51.312;12.372;2024-01-16T07:53:46;1.40;95.00
3418;DHT22;68007;51.312;12.372;2024-01-16T07:56:15;1.40;95.00
3418;DHT22;68007;51.312;12.372;2024-01-16T07:58:42;1.30;95.00
3418;DHT22;68007;51.312;12.372;2024-01-16T08:01:10;1.40;95.10
3418;DHT22;68007;51.312;12.372;2024-01-16T08:03:37;1.30;95.10
3418;DHT22;68007;51.312;12.372;2024-01-16T08:06:05;1.40;95.20
3418;DHT22;68007;51.312;12.372;2024-01-16T08:08:34;1.40;95.30
3418;DHT22;68007;51.312;12.372;2024-01-16T08:11:02;1.40;95.20
3418;DHT22;68007;51.312;12.372;2024-01-16T08:13:29;1.40;95.30
3418;DHT22;68007;51.312;12.372;2024-01-16T08:15:57;1.40;95.50
3418;DHT22;68007;51.312;12.372;2024-01-16T08:18:24;1.30;95.50
3418;DHT22;68007;51.312;12.372;2024-01-16T08:20:52;1.30;95.70
3418;DHT22;68007;51.312;12.372;2024-01-16T08:23:20;1.20;95.80
3418;DHT22;68007;51.312;12.372;2024-01-16T08:25:49;1.20;95.90
3418;DHT22;68007;51.312;12.372;2024-01-16T08:28:17;1.20;96.20
3418;DHT22;68007;51.312;12.372;2024-01-16T08:30:45;1.10;96.10
3418;DHT22;68007;51.312;12.372;2024-01-16T08:33:13;1.10;96.30
3418;DHT22;68007;51.312;12.372;2024-01-16T08:35:40;1.20;96.30
3418;DHT22;68007;51.312;12.372;2024-01-16T08:38:08;1.20;96.30
3418;DHT22;68007;51.312;12.372;2024-01-16T08:40:35;1.20;96.10
3418;DHT22;68007;51.312;12.372;2024-01-16T08:43:04;1.20;96.20
3418;DHT22;68007;51.312;12.372;2024-01-16T08:45:32;1.30;96.20
3418;DHT22;68007;51.312;12.372;2024-01-16T08:47:59;1.20;96.40
3418;DHT22;68007;51.312;12.372;2024-01-16T08:50:28;1.20;96.30
3418;DHT22;68007;51.312;12.372;2024-01-16T08:52:56;1.20;96.40
3418;DHT22;68007;51.312;12.372;2024-01-16T08:55:24;1.20;96.60
3418;DHT22;68007;51.312;12.372;2024-01-16T08:57:51;1.20;96.50
3418;DHT22;68007;51.312;12.372;2024-01-16T09:00:20;1.10;96.60
3418;DHT22;68007;51.312;12.372;2024-01-16T09:02:48;1.10;96.80
3418;DHT22;68007;51.312;12.372;2024-01-16T09:05:16;1.20;96.80
3418;DHT22;68007;51.312;12.372;2024-01-16T09:07:43;1.20;96.80
3418;DHT22;68007;51.312;12.372;2024-01-16T09:10:11;1.20;97.00
3418;DHT22;68007;51.312;12.372;2024-01-16T09:12:39;1.30;96.60
3418;DHT22;68007;51.312;12.372;2024-01-16T09:15:07;1.30;96.40
3418;DHT22;68007;51.312;12.372;2024-01-16T09:17:37;1.40;96.50
3418;DHT22;68007;51.312;12.372;2024-01-16T09:20:06;1.40;96.40
3418;DHT22;68007;51.312;12.372;2024-01-16T09:22:34;1.40;96.20
3418;DHT22;68007;51.312;12.372;2024-01-16T09:25:02;1.40;96.20
3418;DHT22;68007;51.312;12.372;2024-01-16T09:27:29;1.40;96.20
3418;DHT22;68007;51.312;12.372;2024-01-16T09:29:57;1.50;96.00
3418;DHT22;68007;51.312;12.372;2024-01-16T09:32:24;1.50;96.00
3418;DHT22;68007;51.312;12.372;2024-01-16T09:34:53;1.50;96.10
3418;DHT22;68007;51.312;12.372;2024-01-16T09:37:21;1.50;95.80
3418;DHT22;68007;51.312;12.372;2024-01-16T09:39:48;1.50;95.70
3418;DHT22;68007;51.312;12.372;2024-01-16T09:42:17;1.50;95.80
3418;DHT22;68007;51.312;12.372;2024-01-16T09:44:47;1.50;95.80
3418;DHT22;68007;51.312;12.372;2024-01-16T09:47:16;1.60;95.70
3418;DHT22;68007;51.312;12.372;2024-01-16T09:49:46;1.60;95.90
3418;DHT22;68007;51.312;12.372;2024-01-16T09:52:15;1.70;95.80
3418;DHT22;68007;51.312;12.372;2024-01-16T09:54:43;1.70;95.50
3418;DHT22;68007;51.312;12.372;2024-01-16T09:57:12;1.70;95.30
3418;DHT22;68007;51.312;12.372;2024-01-16T09:59:40;1.70;95.40
3418;DHT22;68007;51.312;12.372;2024-01-16T10:02:10;1.80;95.30
3418;DHT22;68007;51.312;12.372;2024-01-16T10:04:40;1.80;95.00
3418;DHT22;68007;51.312;12.372;2024-01-16T10:07:08;1.80;95.10
3418;DHT22;68007;51.312;12.372;2024-01-16T10:09:39;1.80;95.10
3418;DHT22;68007;51.312;12.372;2024-01-16T10:12:07;1.80;95.20
3418;DHT22;68007;51.312;12.372;2024-01-16T10:14:36;1.90;95.10
3418;DHT22;68007;51.312;12.372;2024-01-16T10:17:06;1.90;95.00
3418;DHT22;68007;51.312;12.372;2024-01-16T10:19:48;1.90;95.00
3418;DHT22;68007;51.312;12.372;2024-01-16T10:22:19;2.00;95.00
3418;DHT22;68007;51.312;12.372;2024-01-16T10:24:49;1.90;94.70
3418;DHT22;68007;51.312;12.372;2024-01-16T10:27:17;1.90;94.90
3418;DHT22;68007;51.312;12.372;2024-01-16T10:29:57;1.90;95.00
3418;DHT22;68007;51.312;12.372;2024-01-16T10:32:29;1.90;95.00
3418;DHT22;68007;51.312;12.372;2024-01-16T10:35:04;1.90;95.00
3418;DHT22;68007;51.312;12.372;2024-01-16T10:37:41;1.90;94.70
3418;DHT22;68007;51.312;12.372;2024-01-16T10:40:14;2.00;94.90
3418;DHT22;68007;51.312;12.372;2024-01-16T10:42:42;2.00;94.80
3418;DHT22;68007;51.312;12.372;2024-01-16T10:45:16;2.00;94.90
3418;DHT22;68007;51.312;12.372;2024-01-16T10:47:45;2.10;94.70
3418;DHT22;68007;51.312;12.372;2024-01-16T10:50:13;2.10;94.60
3418;DHT22;68007;51.312;12.372;2024-01-16T10:52:46;2.10;94.60
3418;DHT22;68007;51.312;12.372;2024-01-16T10:55:20;2.20;94.40
3418;DHT22;68007;51.312;12.372;2024-01-16T10:57:49;2.20;94.60
3418;DHT22;68007;51.312;12.372;2024-01-16T11:00:19;2.20;94.50
3418;DHT22;68007;51.312;12.372;2024-01-16T11:02:51;2.20;94.50
3418;DHT22;68007;51.312;12.372;2024-01-16T11:05:20;2.30;94.50
3418;DHT22;68007;51.312;12.372;2024-01-16T11:07:50;2.30;94.50
3418;DHT22;68007;51.312;12.372;2024-01-16T11:10:20;2.40;94.30
3418;DHT22;68007;51.312;12.372;2024-01-16T11:12:49;2.40;94.30
3418;DHT22;68007;51.312;12.372;2024-01-16T11:15:17;2.40;94.40
3418;DHT22;68007;51.312;12.372;2024-01-16T11:17:45;2.40;94.10
3418;DHT22;68007;51.312;12.372;2024-01-16T11:20:13;2.40;94.10
3418;DHT22;68007;51.312;12.372;2024-01-16T11:22:42;2.40;94.20
3418;DHT22;68007;51.312;12.372;2024-01-16T11:25:11;2.50;94.20
3418;DHT22;68007;51.312;12.372;2024-01-16T11:27:42;2.60;94.00
3418;DHT22;68007;51.312;12.372;2024-01-16T11:30:10;2.60;93.70
3418;DHT22;68007;51.312;12.372;2024-01-16T11:32:39;2.50;93.70
3418;DHT22;68007;51.312;12.372;2024-01-16T11:35:08;2.50;93.60
3418;DHT22;68007;51.312;12.372;2024-01-16T11:37:36;2.40;93.70
3418;DHT22;68007;51.312;12.372;2024-01-16T11:40:31;2.50;93.80
3418;DHT22;68007;51.312;12.372;2024-01-16T11:43:37;2.60;93.80
3418;DHT22;68007;51.312;12.372;2024-01-16T11:46:06;2.60;93.40
3418;DHT22;68007;51.312;12.372;2024-01-16T11:48:35;2.50;93.40
3418;DHT22;68007;51.312;12.372;2024-01-16T11:51:22;2.50;93.30
3418;DHT22;68007;51.312;12.372;2024-01-16T11:53:50;2.50;93.50
3418;DHT22;68007;51.312;12.372;2024-01-16T11:56:46;2.50;93.30
3418;DHT22;68007;51.312;12.372;2024-01-16T12:02:20;2.60;93.60
3418;DHT22;68007;51.312;12.372;2024-01-16T12:04:52;2.60;93.30
3418;DHT22;68007;51.312;12.372;2024-01-16T12:07:20;2.60;93.40
3418;DHT22;68007;51.312;12.372;2024-01-16T12:09:48;2.60;93.20
3418;DHT22;68007;51.312;12.372;2024-01-16T12:12:16;2.60;93.20
3418;DHT22;68007;51.312;12.372;2024-01-16T12:14:52;2.60;93.20
3418;DHT22;68007;51.312;12.372;2024-01-16T12:17:20;2.50;93.10
3418;DHT22;68007;51.312;12.372;2024-01-16T12:19:48;2.50;93.20
3418;DHT22;68007;51.312;12.372;2024-01-16T12:22:16;2.50;93.50
3418;DHT22;68007;51.312;12.372;2024-01-16T12:24:44;2.50;93.40
3418;DHT22;68007;51.312;12.372;2024-01-16T12:27:13;2.60;93.40
3418;DHT22;68007;51.312;12.372;2024-01-16T12:29:41;2.60;93.50
3418;DHT22;68007;51.312;12.372;2024-01-16T12:32:11;2.70;93.40
3418;DHT22;68007;51.312;12.372;2024-01-16T12:34:46;2.70;93.30
3418;DHT22;68007;51.312;12.372;2024-01-16T12:37:14;2.70;93.20
3418;DHT22;68007;51.312;12.372;2024-01-16T12:39:41;2.70;93.40
3418;DHT22;68007;51.312;12.372;2024-01-16T12:42:10;2.80;93.30
3418;DHT22;68007;51.312;12.372;2024-01-16T12:44:39;2.80;93.20
3418;DHT22;68007;51.312;12.372;2024-01-16T12:47:06;2.80;93.20
3418;DHT22;68007;51.312;12.372;2024-01-16T12:49:41;2.80;93.20
3418;DHT22;68007;51.312;12.372;2024-01-16T12:52:17;2.80;93.20
3418;DHT22;68007;51.312;12.372;2024-01-16T12:54:47;2.80;93.30
3418;DHT22;68007;51.312;12.372;2024-01-16T12:57:18;2.90;93.30
3418;DHT22;68007;51.312;12.372;2024-01-16T12:59:47;2.90;93.30
3418;DHT22;68007;51.312;12.372;2024-01-16T13:02:21;3.00;93.20
3418;DHT22;68007;51.312;12.372;2024-01-16T13:04:56;3.00;93.10
3418;DHT22;68007;51.312;12.372;2024-01-16T13:07:25;3.10;93.00
3418;DHT22;68007;51.312;12.372;2024-01-16T13:10:06;3.10;93.10
3418;DHT22;68007;51.312;12.372;2024-01-16T13:12:35;3.20;92.90
3418;DHT22;68007;51.312;12.372;2024-01-16T13:15:03;3.40;93.10
3418;DHT22;68007;51.312;12.372;2024-01-16T13:17:32;3.40;92.70
3418;DHT22;68007;51.312;12.372;2024-01-16T13:20:02;3.50;92.80
3418;DHT22;68007;51.312;12.372;2024-01-16T13:22:31;3.60;92.60
3418;DHT22;68007;51.312;12.372;2024-01-16T13:24:58;3.70;92.50
3418;DHT22;68007;51.312;12.372;2024-01-16T13:27:26;3.80;92.00
3418;DHT22;68007;51.312;12.372;2024-01-16T13:29:56;3.90;91.90
3418;DHT22;68007;51.312;12.372;2024-01-16T13:32:24;4.00;91.80
3418;DHT22;68007;51.312;12.372;2024-01-16T13:34:52;4.00;91.70
3418;DHT22;68007;51.312;12.372;2024-01-16T13:37:22;4.10;91.30
3418;DHT22;68007;51.312;12.372;2024-01-16T13:39:49;4.10;90.90
3418;DHT22;68007;51.312;12.372;2024-01-16T13:42:17;4.00;90.60
3418;DHT22;68007;51.312;12.372;2024-01-16T13:44:46;4.00;90.60
3418;DHT22;68007;51.312;12.372;2024-01-16T13:47:15;4.00;90.90
3418;DHT22;68007;51.312;12.372;2024-01-16T13:49:45;4.00;90.60
3418;DHT22;68007;51.312;12.372;2024-01-16T13:52:13;4.00;90.60
3418;DHT22;68007;51.312;12.372;2024-01-16T13:54:42;3.90;90.40
3418;DHT22;68007;51.312;12.372;2024-01-16T13:57:10;3.90;90.50
3418;DHT22;68007;51.312;12.372;2024-01-16T13:59:37;3.90;90.50
3418;DHT22;68007;51.312;12.372;2024-01-16T14:02:05;3.80;90.70
3418;DHT22;68007;51.312;12.372;2024-01-16T14:04:34;3.80;90.30
3418;DHT22;68007;51.312;12.372;2024-01-16T14:07:02;3.80;90.60
3418;DHT22;68007;51.312;12.372;2024-01-16T14:09:33;3.70;90.70
3418;DHT22;68007;51.312;12.372;2024-01-16T14:12:03;3.70;90.80
3418;DHT22;68007;51.312;12.372;2024-01-16T14:14:32;3.70;90.60
3418;DHT22;68007;51.312;12.372;2024-01-16T14:16:59;3.70;90.80
3418;DHT22;68007;51.312;12.372;2024-01-16T14:19:27;3.60;90.80
3418;DHT22;68007;51.312;12.372;2024-01-16T14:21:56;3.70;91.00
3418;DHT22;68007;51.312;12.372;2024-01-16T14:24:23;3.60;90.80
3418;DHT22;68007;51.312;12.372;2024-01-16T14:26:51;3.60;91.10
3418;DHT22;68007;51.312;12.372;2024-01-16T14:29:20;3.60;91.00
3418;DHT22;68007;51.312;12.372;2024-01-16T14:31:47;3.60;90.70
3418;DHT22;68007;51.312;12.372;2024-01-16T14:34:15;3.50;90.50
3418;DHT22;68007;51.312;12.372;2024-01-16T14:36:43;3.50;90.90
3418;DHT22;68007;51.312;12.372;2024-01-16T14:39:11;3.50;91.00
3418;DHT22;68007;51.312;12.372;2024-01-16T14:41:39;3.50;91.20
3418;DHT22;68007;51.312;12.372;2024-01-16T14:44:09;3.50;90.90
3418;DHT22;68007;51.312;12.372;2024-01-16T14:46:39;3.50;91.00
3418;DHT22;68007;51.312;12.372;2024-01-16T14:49:09;3.50;91.10
3418;DHT22;68007;51.312;12.372;2024-01-16T14:51:36;3.50;91.40
3418;DHT22;68007;51.312;12.372;2024-01-16T14:54:04;3.60;91.00
3418;DHT22;68007;51.312;12.372;2024-01-16T14:56:31;3.50;90.90
3418;DHT22;68007;51.312;12.372;2024-01-16T14:58:59;3.50;91.30
3418;DHT22;68007;51.312;12.372;2024-01-16T15:01:27;3.60;91.10
3418;DHT22;68007;51.312;12.372;2024-01-16T15:03:56;3.60;91.20
3418;DHT22;68007;51.312;12.372;2024-01-16T15:06:23;3.70;91.00
3418;DHT22;68007;51.312;12.372;2024-01-16T15:08:52;3.60;90.90
3418;DHT22;68007;51.312;12.372;2024-01-16T15:11:19;3.50;90.70
3418;DHT22;68007;51.312;12.372;2024-01-16T15:13:47;3.50;90.80
3418;DHT22;68007;51.312;12.372;2024-01-16T15:16:15;3.50;90.80
3418;DHT22;68007;51.312;12.372;2024-01-16T15:18:44;3.50;91.00
3418;DHT22;68007;51.312;12.372;2024-01-16T15:21:13;3.50;90.80
3418;DHT22;68007;51.312;12.372;2024-01-16T15:23:41;3.50;90.50
3418;DHT22;68007;51.312;12.372;2024-01-16T15:26:08;3.50;90.70
3418;DHT22;68007;51.312;12.372;2024-01-16T15:28:36;3.50;90.90
3418;DHT22;68007;51.312;12.372;2024-01-16T15:31:03;3.50;91.00
3418;DHT22;68007;51.312;12.372;2024-01-16T15:33:33;3.50;90.60
3418;DHT22;68007;51.312;12.372;2024-01-16T15:36:03;3.50;90.60
3418;DHT22;68007;51.312;12.372;2024-01-16T15:38:32;3.40;90.50
3418;DHT22;68007;51.312;12.372;2024-01-16T15:41:00;3.40;90.80
3418;DHT22;68007;51.312;12.372;2024-01-16T15:43:27;3.40;90.90
3418;DHT22;68007;51.312;12.372;2024-01-16T15:45:55;3.50;91.00
3418;DHT22;68007;51.312;12.372;2024-01-16T15:48:23;3.50;90.80
3418;DHT22;68007;51.312;12.372;2024-01-16T15:50:50;3.60;90.90
3418;DHT22;68007;51.312;12.372;2024-01-16T15:53:18;3.70;91.00
3418;DHT22;68007;51.312;12.372;2024-01-16T15:55:47;3.70;90.80
3418;DHT22;68007;51.312;12.372;2024-01-16T15:58:14;3.80;90.90